sensor_id;sensor_type;location;lat;lon;timestamp;temperature;humidity
47520;DHT22;33252;48.122;11.538;2023-04-15T00:00:38;5.50;99.90
47520;DHT22;33252;48.122;11.538;2023-04-15T00:03:03;5.60;99.90
47520;DHT22;33252;48.122;11.538;2023-04-15T00:05:31;5.60;99.90
47520;DHT22;33252;48.122;11.538;2023-04-15T00:07:57;5.60;99.90
47520;DHT22;33252;48.122;11.538;2023-04-15T00:10:24;5.70;99.90
47520;DHT22;33252;48.122;11.538;2023-04-15T00:12:50;5.60;99.90
47520;DHT22;33252;48.122;11.538;2023-04-15T00:15:16;5.60;99.90
47520;DHT22;33252;48.122;11.538;2023-04-15T00:17:42;5.60;99.90
47520;DHT22;33252;48.122;11.538;2023-04-15T00:20:08;5.70;99.90
47520;DHT22;33252;48.122;11.538;2023-04-15T00:22:34;5.60;99.90
47520;DHT22;33252;48.122;11.538;2023-04-15T00:25:01;5.60;99.90
47520;DHT22;33252;48.122;11.538;2023-04-15T00:27:26;5.70;99.90
47520;DHT22;33252;48.122;11.538;2023-04-15T00:29:52;5.70;99.90
47520;DHT22;33252;48.122;11.538;2023-04-15T00:32:18;5.60;99.90
47520;DHT22;33252;48.122;11.538;2023-04-15T00:34:45;5.60;99.90
47520;DHT22;33252;48.122;11.538;2023-04-15T00:37:11;5.60;99.90
47520;DHT22;33252;48.122;11.538;2023-04-15T00:39:37;5.60;99.90
47520;DHT22;33252;48.122;11.538;2023-04-15T00:42:06;5.70;99.90
47520;DHT22;33252;48.122;11.538;2023-04-15T00:44:32;5.60;99.90
47520;DHT22;33252;48.122;11.538;2023-04-15T00:46:59;5.60;99.90
47520;DHT22;33252;48.122;11.538;2023-04-15T00:49:25;5.70;99.90
47520;DHT22;33252;48.122;11.538;2023-04-15T00:51:52;5.70;99.90
47520;DHT22;33252;48.122;11.538;2023-04-15T00:54:17;5.70;99.90
47520;DHT22;33252;48.122;11.538;2023-04-15T00:56:43;5.60;99.90
47520;DHT22;33252;48.122;11.538;2023-04-15T00:59:09;5.60;99.90
47520;DHT22;33252;48.122;11.538;2023-04-15T01:01:36;5.50;99.90
47520;DHT22;33252;48.122;11.538;2023-04-15T01:04:03;5.40;99.90
47520;DHT22;33252;48.122;11.538;2023-04-15T01:06:30;5.60;99.90
47520;DHT22;33252;48.122;11.538;2023-04-15T01:08:57;5.50;99.90
47520;DHT22;33252;48.122;11.538;2023-04-15T01:11:24;5.50;99.90
47520;DHT22;33252;48.122;11.538;2023-04-15T01:13:50;5.40;99.90
47520;DHT22;33252;48.122;11.538;2023-04-15T01:16:18;5.50;99.90
47520;DHT22;33252;48.122;11.538;2023-04-15T01:18:44;5.60;99.90
47520;DHT22;33252;48.122;11.538;2023-04-15T01:21:10;5.60;99.90
47520;DHT22;33252;48.122;11.538;2023-04-15T01:23:38;5.50;99.90
47520;DHT22;33252;48.122;11.538;2023-04-15T01:26:07;5.50;99.90
47520;DHT22;33252;48.122;11.538;2023-04-15T01:28:36;5.40;99.90
47520;DHT22;33252;48.122;11.538;2023-04-15T01:31:10;5.30;99.90
47520;DHT22;33252;48.122;11.538;2023-04-15T01:33:38;5.40;99.90
47520;DHT22;33252;48.122;11.538;2023-04-15T01:36:08;5.40;99.90
47520;DHT22;33252;48.122;11.538;2023-04-15T01:38:35;5.40;99.90
47520;DHT22;33252;48.122;11.538;2023-04-15T01:41:01;5.50;99.90
47520;DHT22;33252;48.122;11.538;2023-04-15T01:43:29;5.50;99.90
47520;DHT22;33252;48.122;11.538;2023-04-15T01:45:55;5.50;99.90
47520;DHT22;33252;48.122;11.538;2023-04-15T01:48:21;5.60;99.90
47520;DHT22;33252;48.122;11.538;2023-04-15T01:50:47;5.50;99.90
47520;DHT22;33252;48.122;11.538;2023-04-15T01:53:13;5.60;99.90
47520;DHT22;33252;48.122;11.538;2023-04-15T01:55:38;5.50;99.90
47520;DHT22;33252;48.122;11.538;2023-04-15T01:58:04;5.60;99.90
47520;DHT22;33252;48.122;11.538;2023-04-15T02:00:30;5.50;99.90
47520;DHT22;33252;48.122;11.538;2023-04-15T02:02:57;5.60;99.90
47520;DHT22;33252;48.122;11.538;2023-04-15T02:05:23;5.50;99.90
47520;DHT22;33252;48.122;11.538;2023-04-15T02:07:50;5.50;99.90
47520;DHT22;33252;48.122;11.538;2023-04-15T02:10:15;5.50;99.90
47520;DHT22;33252;48.122;11.538;2023-04-15T02:12:41;5.60;99.90
47520;DHT22;33252;48.122;11.538;2023-04-15T02:15:08;5.50;99.90
47520;DHT22;33252;48.122;11.538;2023-04-15T02:17:35;5.50;99.90
47520;DHT22;33252;48.122;11.538;2023-04-15T02:20:01;5.50;99.90
47520;DHT22;33252;48.122;11.538;2023-04-15T02:22:29;5.50;99.90
47520;DHT22;33252;48.122;11.538;2023-04-15T02:24:54;5.50;99.90
47520;DHT22;33252;48.122;11.538;2023-04-15T02:27:20;5.40;99.90
47520;DHT22;33252;48.122;11.538;2023-04-15T02:29:47;5.40;99.90
47520;DHT22;33252;48.122;11.538;2023-04-15T02:32:15;5.30;99.90
47520;DHT22;33252;48.122;11.538;2023-04-15T02:34:41;5.30;99.90
47520;DHT22;33252;48.122;11.538;2023-04-15T02:37:11;5.20;99.90
47520;DHT22;33252;48.122;11.538;2023-04-15T02:39:37;5.30;99.90
47520;DHT22;33252;48.122;11.538;2023-04-15T02:42:03;5.30;99.90
47520;DHT22;33252;48.122;11.538;2023-04-15T02:44:30;5.30;99.90
47520;DHT22;33252;48.122;11.538;2023-04-15T02:46:57;5.40;99.90
47520;DHT22;33252;48.122;11.538;2023-04-15T02:49:23;5.40;99.90
47520;DHT22;33252;48.122;11.538;2023-04-15T02:51:49;5.40;99.90
47520;DHT22;33252;48.122;11.538;2023-04-15T02:54:16;5.40;99.90
47520;DHT22;33252;48.122;11.538;2023-04-15T02:56:42;5.40;99.90
47520;DHT22;33252;48.122;11.538;2023-04-15T02:59:08;5.30;99.90
47520;DHT22;33252;48.122;11.538;2023-04-15T03:01:34;5.30;99.90
47520;DHT22;33252;48.122;11.538;2023-04-15T03:03:59;5.30;99.90
47520;DHT22;33252;48.122;11.538;2023-04-15T03:06:25;5.40;99.90
47520;DHT22;33252;48.122;11.538;2023-04-15T03:08:51;5.30;99.90
47520;DHT22;33252;48.122;11.538;2023-04-15T03:11:18;5.30;99.90
47520;DHT22;33252;48.122;11.538;2023-04-15T03:13:43;5.40;99.90
47520;DHT22;33252;48.122;11.538;2023-04-15T03:16:09;5.40;99.90
47520;DHT22;33252;48.122;11.538;2023-04-15T03:18:35;5.40;99.90
47520;DHT22;33252;48.122;11.538;2023-04-15T03:21:01;5.40;99.90
47520;DHT22;33252;48.122;11.538;2023-04-15T03:23:27;5.40;99.90
47520;DHT22;33252;48.122;11.538;2023-04-15T03:25:53;5.40;99.90
47520;DHT22;33252;48.122;11.538;2023-04-15T03:28:23;5.40;99.90
47520;DHT22;33252;48.122;11.538;2023-04-15T03:30:48;5.40;99.90
47520;DHT22;33252;48.122;11.538;2023-04-15T03:33:14;5.50;99.90
47520;DHT22;33252;48.122;11.538;2023-04-15T03:35:40;5.50;99.90
47520;DHT22;33252;48.122;11.538;2023-04-15T03:38:05;5.40;99.90
47520;DHT22;33252;48.122;11.538;2023-04-15T03:45:52;5.40;99.90
47520;DHT22;33252;48.122;11.538;2023-04-15T03:48:17;5.40;99.90
47520;DHT22;33252;48.122;11.538;2023-04-15T03:50:43;5.40;99.90
47520;DHT22;33252;48.122;11.538;2023-04-15T03:53:09;5.40;99.90
47520;DHT22;33252;48.122;11.538;2023-04-15T03:55:35;5.40;99.90
47520;DHT22;33252;48.122;11.538;2023-04-15T03:58:02;5.40;99.90
47520;DHT22;33252;48.122;11.538;2023-04-15T04:00:28;5.30;99.90
47520;DHT22;33252;48.122;11.538;2023-04-15T04:02:53;5.30;99.90
47520;DHT22;33252;48.122;11.538;2023-04-15T04:05:19;5.40;99.90
47520;DHT22;33252;48.122;11.538;2023-04-15T04:07:45;5.40;99.90
47520;DHT22;33252;48.122;11.538;2023-04-15T04:10:10;5.30;99.90
47520;DHT22;33252;48.122;11.538;2023-04-15T04:12:36;5.30;99.90
47520;DHT22;33252;48.122;11.538;2023-04-15T04:15:02;5.40;99.90
47520;DHT22;33252;48.122;11.538;2023-04-15T04:17:27;5.40;99.90
47520;DHT22;33252;48.122;11.538;2023-04-15T04:19:53;5.40;99.90
47520;DHT22;33252;48.122;11.538;2023-04-15T04:22:22;5.40;99.90
47520;DHT22;33252;48.122;11.538;2023-04-15T04:24:49;5.40;99.90
47520;DHT22;33252;48.122;11.538;2023-04-15T04:27:15;5.40;99.90
47520;DHT22;33252;48.122;11.538;2023-04-15T04:29:40;5.40;99.90
47520;DHT22;33252;48.122;11.538;2023-04-15T04:32:06;5.40;99.90
47520;DHT22;33252;48.122;11.538;2023-04-15T04:34:32;5.40;99.90
47520;DHT22;33252;48.122;11.538;2023-04-15T04:36:57;5.40;99.90
47520;DHT22;33252;48.122;11.538;2023-04-15T04:39:23;5.40;99.90
47520;DHT22;33252;48.122;11.538;2023-04-15T04:41:49;5.40;99.90
47520;DHT22;33252;48.122;11.538;2023-04-15T04:44:16;5.40;99.90
47520;DHT22;33252;48.122;11.538;2023-04-15T04:46:42;5.40;99.90
47520;DHT22;33252;48.122;11.538;2023-04-15T04:49:08;5.40;99.90
47520;DHT22;33252;48.122;11.538;2023-04-15T04:51:34;5.40;99.90
47520;DHT22;33252;48.122;11.538;2023-04-15T04:53:59;5.40;99.90
47520;DHT22;33252;48.122;11.538;2023-04-15T04:56:25;5.30;99.90
47520;DHT22;33252;48.122;11.538;2023-04-15T04:58:51;5.50;99.90
47520;DHT22;33252;48.122;11.538;2023-04-15T05:01:17;5.40;99.90
47520;DHT22;33252;48.122;11.538;2023-04-15T05:03:43;5.40;99.90
47520;DHT22;33252;48.122;11.538;2023-04-15T05:06:08;5.30;99.90
47520;DHT22;33252;48.122;11.538;2023-04-15T05:08:35;5.30;99.90
47520;DHT22;33252;48.122;11.538;2023-04-15T05:11:01;5.40;99.90
47520;DHT22;33252;48.122;11.538;2023-04-15T05:13:27;5.40;99.90
47520;DHT22;33252;48.122;11.538;2023-04-15T05:15:52;5.40;99.90
47520;DHT22;33252;48.122;11.538;2023-04-15T05:18:18;5.40;99.90
47520;DHT22;33252;48.122;11.538;2023-04-15T05:20:45;5.40;99.90
47520;DHT22;33252;48.122;11.538;2023-04-15T05:23:10;5.40;99.90
47520;DHT22;33252;48.122;11.538;2023-04-15T05:25:36;5.30;99.90
47520;DHT22;33252;48.122;11.538;2023-04-15T05:28:02;5.40;99.90
47520;DHT22;33252;48.122;11.538;2023-04-15T05:30:27;5.40;99.90
47520;DHT22;33252;48.122;11.538;2023-04-15T05:32:53;5.40;99.90
47520;DHT22;33252;48.122;11.538;2023-04-15T05:35:19;5.50;99.90
47520;DHT22;33252;48.122;11.538;2023-04-15T05:37:44;5.40;99.90
47520;DHT22;33252;48.122;11.538;2023-04-15T05:40:10;5.40;99.90
47520;DHT22;33252;48.122;11.538;2023-04-15T05:42:36;5.50;99.90
47520;DHT22;33252;48.122;11.538;2023-04-15T05:45:02;5.50;99.90
47520;DHT22;33252;48.122;11.538;2023-04-15T05:47:30;5.40;99.90
47520;DHT22;33252;48.122;11.538;2023-04-15T05:49:56;5.40;99.90
47520;DHT22;33252;48.122;11.538;2023-04-15T05:52:23;5.40;99.90
47520;DHT22;33252;48.122;11.538;2023-04-15T05:54:49;5.50;99.90
47520;DHT22;33252;48.122;11.538;2023-04-15T05:57:15;5.50;99.90
47520;DHT22;33252;48.122;11.538;2023-04-15T05:59:41;5.50;99.90
47520;DHT22;33252;48.122;11.538;2023-04-15T06:02:08;5.50;99.90
47520;DHT22;33252;48.122;11.538;2023-04-15T06:04:34;5.60;99.90
47520;DHT22;33252;48.122;11.538;2023-04-15T06:06:59;5.50;99.90
47520;DHT22;33252;48.122;11.538;2023-04-15T06:09:25;5.50;99.90
47520;DHT22;33252;48.122;11.538;2023-04-15T06:11:51;5.70;99.90
47520;DHT22;33252;48.122;11.538;2023-04-15T06:14:17;5.70;99.90
47520;DHT22;33252;48.122;11.538;2023-04-15T06:16:43;5.70;99.90
47520;DHT22;33252;48.122;11.538;2023-04-15T06:19:08;5.70;99.90
47520;DHT22;33252;48.122;11.538;2023-04-15T06:21:34;5.60;99.90
47520;DHT22;33252;48.122;11.538;2023-04-15T06:24:00;5.70;99.90
47520;DHT22;33252;48.122;11.538;2023-04-15T06:26:26;5.70;99.90
47520;DHT22;33252;48.122;11.538;2023-04-15T06:28:52;5.70;99.90
47520;DHT22;33252;48.122;11.538;2023-04-15T06:31:18;5.70;99.90
47520;DHT22;33252;48.122;11.538;2023-04-15T06:33:44;5.60;99.90
47520;DHT22;33252;48.122;11.538;2023-04-15T06:36:09;5.70;99.90
47520;DHT22;33252;48.122;11.538;2023-04-15T06:38:35;5.80;99.90
47520;DHT22;33252;48.122;11.538;2023-04-15T06:41:02;5.90;99.90
47520;DHT22;33252;48.122;11.538;2023-04-15T06:43:28;5.90;99.90
47520;DHT22;33252;48.122;11.538;2023-04-15T06:45:54;5.90;99.90
47520;DHT22;33252;48.122;11.538;2023-04-15T06:48:19;5.90;99.90
47520;DHT22;33252;48.122;11.538;2023-04-15T06:50:45;5.90;99.90
47520;DHT22;33252;48.122;11.538;2023-04-15T06:53:10;5.90;99.90
47520;DHT22;33252;48.122;11.538;2023-04-15T06:55:36;6.00;99.90
47520;DHT22;33252;48.122;11.538;2023-04-15T06:58:02;5.90;99.90
47520;DHT22;33252;48.122;11.538;2023-04-15T07:00:28;5.90;99.90
47520;DHT22;33252;48.122;11.538;2023-04-15T07:02:53;5.90;99.90
47520;DHT22;33252;48.122;11.538;2023-04-15T07:05:20;5.90;99.90
47520;DHT22;33252;48.122;11.538;2023-04-15T07:07:45;6.00;99.90
47520;DHT22;33252;48.122;11.538;2023-04-15T07:10:11;6.10;99.90
47520;DHT22;33252;48.122;11.538;2023-04-15T07:12:36;6.10;99.90
47520;DHT22;33252;48.122;11.538;2023-04-15T07:15:03;6.30;99.90
47520;DHT22;33252;48.122;11.538;2023-04-15T07:17:29;6.30;99.90
47520;DHT22;33252;48.122;11.538;2023-04-15T07:19:55;6.30;99.90
47520;DHT22;33252;48.122;11.538;2023-04-15T07:22:20;6.40;99.90
47520;DHT22;33252;48.122;11.538;2023-04-15T07:24:46;6.40;99.90
47520;DHT22;33252;48.122;11.538;2023-04-15T07:27:12;6.40;99.90
47520;DHT22;33252;48.122;11.538;2023-04-15T07:29:37;6.50;99.50
47520;DHT22;33252;48.122;11.538;2023-04-15T07:32:03;6.50;99.50
47520;DHT22;33252;48.122;11.538;2023-04-15T07:34:29;6.70;99.70
47520;DHT22;33252;48.122;11.538;2023-04-15T07:36:55;6.80;99.00
47520;DHT22;33252;48.122;11.538;2023-04-15T07:39:20;7.00;99.30
47520;DHT22;33252;48.122;11.538;2023-04-15T07:41:46;7.00;99.30
47520;DHT22;33252;48.122;11.538;2023-04-15T07:44:13;7.00;98.50
47520;DHT22;33252;48.122;11.538;2023-04-15T07:46:39;7.10;98.40
47520;DHT22;33252;48.122;11.538;2023-04-15T07:49:04;7.10;98.40
47520;DHT22;33252;48.122;11.538;2023-04-15T07:51:30;7.10;97.90
47520;DHT22;33252;48.122;11.538;2023-04-15T07:53:56;7.10;97.90
47520;DHT22;33252;48.122;11.538;2023-04-15T07:56:22;7.30;98.80
47520;DHT22;33252;48.122;11.538;2023-04-15T07:58:47;7.40;98.40
47520;DHT22;33252;48.122;11.538;2023-04-15T08:01:13;7.50;97.90
47520;DHT22;33252;48.122;11.538;2023-04-15T08:03:39;7.60;96.60
47520;DHT22;33252;48.122;11.538;2023-04-15T08:06:05;7.40;96.70
47520;DHT22;33252;48.122;11.538;2023-04-15T08:08:31;7.60;97.60
47520;DHT22;33252;48.122;11.538;2023-04-15T08:10:57;7.80;97.60
47520;DHT22;33252;48.122;11.538;2023-04-15T08:13:23;8.00;96.10
47520;DHT22;33252;48.122;11.538;2023-04-15T08:16:12;7.90;96.80
47520;DHT22;33252;48.122;11.538;2023-04-15T08:18:38;8.10;96.80
47520;DHT22;33252;48.122;11.538;2023-04-15T08:21:04;8.10;95.70
47520;DHT22;33252;48.122;11.538;2023-04-15T08:23:30;8.10;96.20
47520;DHT22;33252;48.122;11.538;2023-04-15T08:25:57;8.10;95.60
47520;DHT22;33252;48.122;11.538;2023-04-15T08:28:22;8.10;95.50
47520;DHT22;33252;48.122;11.538;2023-04-15T08:30:48;8.20;95.80
47520;DHT22;33252;48.122;11.538;2023-04-15T08:33:14;8.20;95.40
47520;DHT22;33252;48.122;11.538;2023-04-15T08:35:39;8.20;95.30
47520;DHT22;33252;48.122;11.538;2023-04-15T08:38:05;8.10;95.70
47520;DHT22;33252;48.122;11.538;2023-04-15T08:40:45;8.20;95.90
47520;DHT22;33252;48.122;11.538;2023-04-15T08:43:23;8.10;95.20
47520;DHT22;33252;48.122;11.538;2023-04-15T08:45:51;8.10;95.40
47520;DHT22;33252;48.122;11.538;2023-04-15T08:48:18;8.00;95.20
47520;DHT22;33252;48.122;11.538;2023-04-15T08:50:44;8.00;95.90
47520;DHT22;33252;48.122;11.538;2023-04-15T08:53:11;8.10;95.40
47520;DHT22;33252;48.122;11.538;2023-04-15T08:55:44;8.10;95.50
47520;DHT22;33252;48.122;11.538;2023-04-15T08:58:11;8.00;95.60
47520;DHT22;33252;48.122;11.538;2023-04-15T09:00:38;8.10;96.20
47520;DHT22;33252;48.122;11.538;2023-04-15T09:03:05;8.10;96.50
47520;DHT22;33252;48.122;11.538;2023-04-15T09:05:32;8.20;95.90
47520;DHT22;33252;48.122;11.538;2023-04-15T09:07:58;8.20;96.00
47520;DHT22;33252;48.122;11.538;2023-04-15T09:10:24;8.10;95.40
47520;DHT22;33252;48.122;11.538;2023-04-15T09:12:50;8.20;95.50
47520;DHT22;33252;48.122;11.538;2023-04-15T09:15:16;8.20;95.00
47520;DHT22;33252;48.122;11.538;2023-04-15T09:17:43;8.30;95.20
47520;DHT22;33252;48.122;11.538;2023-04-15T09:20:10;8.40;95.20
47520;DHT22;33252;48.122;11.538;2023-04-15T09:22:41;8.40;94.70
47520;DHT22;33252;48.122;11.538;2023-04-15T09:28:01;8.50;94.70
47520;DHT22;33252;48.122;11.538;2023-04-15T09:30:27;8.70;94.70
47520;DHT22;33252;48.122;11.538;2023-04-15T09:33:01;8.80;94.90
47520;DHT22;33252;48.122;11.538;2023-04-15T09:35:27;8.80;94.90
47520;DHT22;33252;48.122;11.538;2023-04-15T09:38:04;8.90;94.20
47520;DHT22;33252;48.122;11.538;2023-04-15T09:40:38;8.90;94.80
47520;DHT22;33252;48.122;11.538;2023-04-15T09:43:05;9.00;94.60
47520;DHT22;33252;48.122;11.538;2023-04-15T09:45:32;8.90;94.60
47520;DHT22;33252;48.122;11.538;2023-04-15T09:47:59;9.10;94.70
47520;DHT22;33252;48.122;11.538;2023-04-15T09:50:28;9.10;94.90
47520;DHT22;33252;48.122;11.538;2023-04-15T09:52:54;9.20;94.40
47520;DHT22;33252;48.122;11.538;2023-04-15T09:55:20;9.20;94.00
47520;DHT22;33252;48.122;11.538;2023-04-15T09:57:46;9.30;94.80
47520;DHT22;33252;48.122;11.538;2023-04-15T10:00:13;9.20;94.00
47520;DHT22;33252;48.122;11.538;2023-04-15T10:02:40;9.10;94.50
47520;DHT22;33252;48.122;11.538;2023-04-15T10:05:09;9.10;94.10
47520;DHT22;33252;48.122;11.538;2023-04-15T10:07:35;9.10;94.40
47520;DHT22;33252;48.122;11.538;2023-04-15T10:10:02;9.10;94.10
47520;DHT22;33252;48.122;11.538;2023-04-15T10:12:30;9.10;93.80
47520;DHT22;33252;48.122;11.538;2023-04-15T10:14:59;9.10;93.30
47520;DHT22;33252;48.122;11.538;2023-04-15T10:17:27;8.90;93.70
47520;DHT22;33252;48.122;11.538;2023-04-15T10:20:00;9.00;93.20
47520;DHT22;33252;48.122;11.538;2023-04-15T10:22:27;8.90;93.00
47520;DHT22;33252;48.122;11.538;2023-04-15T10:24:55;9.00;93.40
47520;DHT22;33252;48.122;11.538;2023-04-15T10:27:21;8.90;93.30
47520;DHT22;33252;48.122;11.538;2023-04-15T10:29:49;9.00;93.30
47520;DHT22;33252;48.122;11.538;2023-04-15T10:32:17;8.90;93.50
47520;DHT22;33252;48.122;11.538;2023-04-15T10:34:45;9.00;93.70
47520;DHT22;33252;48.122;11.538;2023-04-15T10:37:11;9.10;93.80
47520;DHT22;33252;48.122;11.538;2023-04-15T10:39:39;9.10;93.40
47520;DHT22;33252;48.122;11.538;2023-04-15T10:42:13;9.10;94.30
47520;DHT22;33252;48.122;11.538;2023-04-15T10:44:49;9.10;93.60
47520;DHT22;33252;48.122;11.538;2023-04-15T10:47:19;9.10;93.90
47520;DHT22;33252;48.122;11.538;2023-04-15T10:49:59;9.00;93.40
47520;DHT22;33252;48.122;11.538;2023-04-15T10:52:26;9.00;93.20
47520;DHT22;33252;48.122;11.538;2023-04-15T10:55:03;9.10;93.40
47520;DHT22;33252;48.122;11.538;2023-04-15T10:57:41;9.20;93.30
47520;DHT22;33252;48.122;11.538;2023-04-15T11:00:17;9.10;93.00
47520;DHT22;33252;48.122;11.538;2023-04-15T11:02:52;9.20;93.30
47520;DHT22;33252;48.122;11.538;2023-04-15T11:05:19;9.30;94.00
47520;DHT22;33252;48.122;11.538;2023-04-15T11:12:42;9.30;92.80
47520;DHT22;33252;48.122;11.538;2023-04-15T11:15:28;9.20;93.20
47520;DHT22;33252;48.122;11.538;2023-04-15T11:17:58;9.30;92.70
47520;DHT22;33252;48.122;11.538;2023-04-15T11:20:27;9.20;93.60
47520;DHT22;33252;48.122;11.538;2023-04-15T11:22:53;9.30;92.90
47520;DHT22;33252;48.122;11.538;2023-04-15T11:25:30;9.30;93.30
47520;DHT22;33252;48.122;11.538;2023-04-15T11:27:59;9.20;93.20
47520;DHT22;33252;48.122;11.538;2023-04-15T11:30:27;9.10;93.40
47520;DHT22;33252;48.122;11.538;2023-04-15T11:32:56;9.10;93.20
47520;DHT22;33252;48.122;11.538;2023-04-15T11:35:22;9.10;93.50
47520;DHT22;33252;48.122;11.538;2023-04-15T11:37:49;9.10;94.00
47520;DHT22;33252;48.122;11.538;2023-04-15T11:40:16;9.00;93.70
47520;DHT22;33252;48.122;11.538;2023-04-15T11:42:43;8.90;94.00
47520;DHT22;33252;48.122;11.538;2023-04-15T11:45:13;8.90;94.90
47520;DHT22;33252;48.122;11.538;2023-04-15T11:47:40;8.90;94.20
47520;DHT22;33252;48.122;11.538;2023-04-15T11:52:56;8.90;94.40
47520;DHT22;33252;48.122;11.538;2023-04-15T11:55:23;8.90;93.80
47520;DHT22;33252;48.122;11.538;2023-04-15T11:58:10;8.90;94.20
47520;DHT22;33252;48.122;11.538;2023-04-15T12:00:37;8.80;93.60
47520;DHT22;33252;48.122;11.538;2023-04-15T12:03:38;8.80;93.80
47520;DHT22;33252;48.122;11.538;2023-04-15T12:08:58;8.80;93.80
47520;DHT22;33252;48.122;11.538;2023-04-15T12:11:31;8.80;94.00
47520;DHT22;33252;48.122;11.538;2023-04-15T12:14:10;8.80;94.50
47520;DHT22;33252;48.122;11.538;2023-04-15T12:16:41;8.70;94.40
47520;DHT22;33252;48.122;11.538;2023-04-15T12:19:12;8.80;94.10
47520;DHT22;33252;48.122;11.538;2023-04-15T12:21:40;8.70;94.40
47520;DHT22;33252;48.122;11.538;2023-04-15T12:24:08;8.80;94.40
47520;DHT22;33252;48.122;11.538;2023-04-15T12:29:05;8.90;94.10
47520;DHT22;33252;48.122;11.538;2023-04-15T12:31:33;8.90;94.00
47520;DHT22;33252;48.122;11.538;2023-04-15T12:34:00;8.90;93.80
47520;DHT22;33252;48.122;11.538;2023-04-15T12:36:26;8.90;93.80
47520;DHT22;33252;48.122;11.538;2023-04-15T12:38:53;9.00;93.40
47520;DHT22;33252;48.122;11.538;2023-04-15T12:41:21;9.10;94.10
47520;DHT22;33252;48.122;11.538;2023-04-15T12:43:49;9.00;93.50
47520;DHT22;33252;48.122;11.538;2023-04-15T12:46:15;9.10;93.80
47520;DHT22;33252;48.122;11.538;2023-04-15T12:48:41;9.30;93.80
47520;DHT22;33252;48.122;11.538;2023-04-15T12:51:06;9.30;93.30
47520;DHT22;33252;48.122;11.538;2023-04-15T12:53:32;9.30;93.30
47520;DHT22;33252;48.122;11.538;2023-04-15T12:55:58;9.20;93.20
47520;DHT22;33252;48.122;11.538;2023-04-15T12:58:24;9.30;91.70
47520;DHT22;33252;48.122;11.538;2023-04-15T13:00:49;9.20;91.30
47520;DHT22;33252;48.122;11.538;2023-04-15T13:03:15;9.20;91.80
47520;DHT22;33252;48.122;11.538;2023-04-15T13:05:41;9.20;90.60
47520;DHT22;33252;48.122;11.538;2023-04-15T13:08:07;9.20;90.30
47520;DHT22;33252;48.122;11.538;2023-04-15T13:10:34;9.20;90.00
47520;DHT22;33252;48.122;11.538;2023-04-15T13:13:01;9.20;89.80
47520;DHT22;33252;48.122;11.538;2023-04-15T13:15:27;9.20;90.40
47520;DHT22;33252;48.122;11.538;2023-04-15T13:17:53;9.20;90.40
47520;DHT22;33252;48.122;11.538;2023-04-15T13:20:19;9.20;90.00
47520;DHT22;33252;48.122;11.538;2023-04-15T13:22:45;9.10;89.80
47520;DHT22;33252;48.122;11.538;2023-04-15T13:25:11;9.10;89.90
47520;DHT22;33252;48.122;11.538;2023-04-15T13:27:36;9.10;89.70
47520;DHT22;33252;48.122;11.538;2023-04-15T13:30:03;9.10;89.40
47520;DHT22;33252;48.122;11.538;2023-04-15T13:32:29;9.10;90.10
47520;DHT22;33252;48.122;11.538;2023-04-15T13:34:55;9.10;90.30
47520;DHT22;33252;48.122;11.538;2023-04-15T13:37:28;9.00;90.70
47520;DHT22;33252;48.122;11.538;2023-04-15T13:39:54;9.00;90.80
47520;DHT22;33252;48.122;11.538;2023-04-15T13:42:21;9.00;90.50
47520;DHT22;33252;48.122;11.538;2023-04-15T13:44:48;8.90;91.30
47520;DHT22;33252;48.122;11.538;2023-04-15T13:47:13;8.90;92.20
47520;DHT22;33252;48.122;11.538;2023-04-15T13:49:40;8.90;91.70
47520;DHT22;33252;48.122;11.538;2023-04-15T13:52:06;8.90;94.30
47520;DHT22;33252;48.122;11.538;2023-04-15T13:54:32;8.70;92.70
47520;DHT22;33252;48.122;11.538;2023-04-15T13:56:57;8.60;94.20
47520;DHT22;33252;48.122;11.538;2023-04-15T13:59:23;8.60;94.20
47520;DHT22;33252;48.122;11.538;2023-04-15T14:01:48;8.60;94.80
47520;DHT22;33252;48.122;11.538;2023-04-15T14:04:14;8.60;94.60
47520;DHT22;33252;48.122;11.538;2023-04-15T14:06:40;8.60;94.60
47520;DHT22;33252;48.122;11.538;2023-04-15T14:09:06;8.60;94.40
47520;DHT22;33252;48.122;11.538;2023-04-15T14:11:31;8.70;94.70
47520;DHT22;33252;48.122;11.538;2023-04-15T14:13:59;8.60;93.50
47520;DHT22;33252;48.122;11.538;2023-04-15T14:16:25;8.60;93.40
47520;DHT22;33252;48.122;11.538;2023-04-15T14:18:51;8.60;93.90
47520;DHT22;33252;48.122;11.538;2023-04-15T14:21:17;8.70;93.20
47520;DHT22;33252;48.122;11.538;2023-04-15T14:23:42;8.70;93.80
47520;DHT22;33252;48.122;11.538;2023-04-15T14:26:08;8.60;92.80
47520;DHT22;33252;48.122;11.538;2023-04-15T14:28:34;8.60;92.50
47520;DHT22;33252;48.122;11.538;2023-04-15T14:31:00;8.70;92.40
47520;DHT22;33252;48.122;11.538;2023-04-15T14:33:26;8.70;92.40
47520;DHT22;33252;48.122;11.538;2023-04-15T14:35:51;8.80;92.60
47520;DHT22;33252;48.122;11.538;2023-04-15T14:38:17;8.80;91.60
47520;DHT22;33252;48.122;11.538;2023-04-15T14:40:43;8.80;91.90
47520;DHT22;33252;48.122;11.538;2023-04-15T14:43:09;8.70;91.40
47520;DHT22;33252;48.122;11.538;2023-04-15T14:45:36;8.70;92.00
47520;DHT22;33252;48.122;11.538;2023-04-15T14:48:02;8.70;91.60
47520;DHT22;33252;48.122;11.538;2023-04-15T14:50:28;8.60;92.20
47520;DHT22;33252;48.122;11.538;2023-04-15T14:52:53;8.60;91.70
47520;DHT22;33252;48.122;11.538;2023-04-15T14:55:19;8.60;91.60
47520;DHT22;33252;48.122;11.538;2023-04-15T14:57:45;8.50;91.70
47520;DHT22;33252;48.122;11.538;2023-04-15T15:00:11;8.60;92.40
47520;DHT22;33252;48.122;11.538;2023-04-15T15:02:37;8.60;92.30
47520;DHT22;33252;48.122;11.538;2023-04-15T15:05:03;8.60;92.20
47520;DHT22;33252;48.122;11.538;2023-04-15T15:07:29;8.50;92.60
47520;DHT22;33252;48.122;11.538;2023-04-15T15:09:55;8.50;93.10
47520;DHT22;33252;48.122;11.538;2023-04-15T15:12:21;8.50;94.10
47520;DHT22;33252;48.122;11.538;2023-04-15T15:14:49;8.50;94.00
47520;DHT22;33252;48.122;11.538;2023-04-15T15:17:15;8.40;95.20
47520;DHT22;33252;48.122;11.538;2023-04-15T15:19:41;8.40;95.70
47520;DHT22;33252;48.122;11.538;2023-04-15T15:22:06;8.30;96.10
47520;DHT22;33252;48.122;11.538;2023-04-15T15:24:32;8.30;96.50
47520;DHT22;33252;48.122;11.538;2023-04-15T15:26:58;8.10;97.00
47520;DHT22;33252;48.122;11.538;2023-04-15T15:29:23;7.90;97.40
47520;DHT22;33252;48.122;11.538;2023-04-15T15:31:49;7.70;97.20
47520;DHT22;33252;48.122;11.538;2023-04-15T15:34:15;7.60;98.10
47520;DHT22;33252;48.122;11.538;2023-04-15T15:36:41;7.60;98.90
47520;DHT22;33252;48.122;11.538;2023-04-15T15:39:07;7.50;99.80
47520;DHT22;33252;48.122;11.538;2023-04-15T15:41:33;7.30;99.70
47520;DHT22;33252;48.122;11.538;2023-04-15T15:43:59;7.20;99.90
47520;DHT22;33252;48.122;11.538;2023-04-15T15:46:26;7.20;99.90
47520;DHT22;33252;48.122;11.538;2023-04-15T15:48:52;7.10;99.90